地図

経路データ

SID SEASON NUMBER BASIN SUBBASIN NAME ISO_TIME NATURE LAT LON WMO_WIND WMO_PRES WMO_AGENCY TRACK_TYPE DIST2LAND LANDFALL IFLAG USA_AGENCY USA_ATCF_ID USA_LAT USA_LON USA_RECORD USA_STATUS USA_WIND USA_PRES USA_SSHS USA_R34_NE USA_R34_SE USA_R34_SW USA_R34_NW USA_R50_NE USA_R50_SE USA_R50_SW USA_R50_NW USA_R64_NE USA_R64_SE USA_R64_SW USA_R64_NW USA_POCI USA_ROCI USA_RMW USA_EYE TOKYO_LAT TOKYO_LON TOKYO_GRADE TOKYO_WIND TOKYO_PRES TOKYO_R50_DIR TOKYO_R50_LONG TOKYO_R50_SHORT TOKYO_R30_DIR TOKYO_R30_LONG TOKYO_R30_SHORT TOKYO_LAND CMA_LAT CMA_LON CMA_CAT CMA_WIND CMA_PRES HKO_LAT HKO_LON HKO_CAT HKO_WIND HKO_PRES NEWDELHI_LAT NEWDELHI_LON NEWDELHI_GRADE NEWDELHI_WIND NEWDELHI_PRES NEWDELHI_CI NEWDELHI_DP NEWDELHI_POCI REUNION_LAT REUNION_LON REUNION_TYPE REUNION_WIND REUNION_PRES REUNION_TNUM REUNION_CI REUNION_RMW REUNION_R34_NE REUNION_R34_SE REUNION_R34_SW REUNION_R34_NW REUNION_R50_NE REUNION_R50_SE REUNION_R50_SW REUNION_R50_NW REUNION_R64_NE REUNION_R64_SE REUNION_R64_SW REUNION_R64_NW BOM_LAT BOM_LON BOM_TYPE BOM_WIND BOM_PRES BOM_TNUM BOM_CI BOM_RMW BOM_R34_NE BOM_R34_SE BOM_R34_SW BOM_R34_NW BOM_R50_NE BOM_R50_SE BOM_R50_SW BOM_R50_NW BOM_R64_NE BOM_R64_SE BOM_R64_SW BOM_R64_NW BOM_ROCI BOM_POCI BOM_EYE BOM_POS_METHOD BOM_PRES_METHOD NADI_LAT NADI_LON NADI_CAT NADI_WIND NADI_PRES WELLINGTON_LAT WELLINGTON_LON WELLINGTON_WIND WELLINGTON_PRES DS824_LAT DS824_LON DS824_STAGE DS824_WIND DS824_PRES TD9636_LAT TD9636_LON TD9636_STAGE TD9636_WIND TD9636_PRES TD9635_LAT TD9635_LON TD9635_WIND TD9635_PRES TD9635_ROCI NEUMANN_LAT NEUMANN_LON NEUMANN_CLASS NEUMANN_WIND NEUMANN_PRES MLC_LAT MLC_LON MLC_CLASS MLC_WIND MLC_PRES USA_GUST BOM_GUST BOM_GUST_PER REUNION_GUST REUNION_GUST_PER USA_SEAHGT USA_SEARAD_NE USA_SEARAD_SE USA_SEARAD_SW USA_SEARAD_NW STORM_SPEED STORM_DIR
1908214N18120 1908 26 WP MM NOT_NAMED 1908-07-31 16:00:00 NR 17.8000 120.000 main 38 38 __________O___ -1 17.8000 120.000 2 5 270
1908214N18120 1908 26 WP MM NOT_NAMED 1908-07-31 18:00:00 NR 17.7993 119.820 main 57 57 __________P___ -1 17.7993 119.820 2 5 270
1908214N18120 1908 26 WP MM NOT_NAMED 1908-07-31 21:00:00 NR 17.7984 119.549 main 87 87 __________P___ -1 17.7984 119.549 2 5 270
1908214N18120 1908 26 WP MM NOT_NAMED 1908-08-01 00:00:00 NR 17.7982 119.274 main 108 108 __________P___ -1 17.7982 119.274 2 5 270
1908214N18120 1908 26 WP MM NOT_NAMED 1908-08-01 03:00:00 NR 17.7993 118.995 main 139 139 __________P___ -1 17.7993 118.995 2 5 270
1908214N18120 1908 26 WP MM NOT_NAMED 1908-08-01 04:00:00 NR 17.8000 118.900 main 150 150 __________O___ -1 17.8000 118.900 2 5 271
1908214N18120 1908 26 WP MM NOT_NAMED 1908-08-01 06:00:00 NR 17.8020 118.707 main 170 170 __________P___ -1 17.8020 118.707 2 6 271
1908214N18120 1908 26 WP MM NOT_NAMED 1908-08-01 09:00:00 NR 17.8053 118.393 main 202 202 __________P___ -1 17.8053 118.393 2 7 270
1908214N18120 1908 26 WP MM NOT_NAMED 1908-08-01 12:00:00 NR 17.8065 118.024 main 244 244 __________P___ -1 17.8065 118.024 2 8 270
1908214N18120 1908 26 WP MM NOT_NAMED 1908-08-01 15:00:00 NR 17.8028 117.574 main 286 296 __________P___ -1 17.8028 117.574 2 9 269
1908214N18120 1908 26 WP MM NOT_NAMED 1908-08-01 16:00:00 NR 17.8000 117.400 main 305 305 __________O___ -1 17.8000 117.400 2 11 269
1908214N18120 1908 26 WP MM NOT_NAMED 1908-08-01 18:00:00 NR 17.7901 116.979 main 341 351 __________P___ -1 17.7901 116.979 2 13 268
1908214N18120 1908 26 WP MM NOT_NAMED 1908-08-01 21:00:00 NR 17.7685 116.264 main 408 417 __________P___ -1 17.7685 116.264 2 14 268
1908214N18120 1908 26 WP MM NOT_NAMED 1908-08-02 00:00:00 NR 17.7407 115.517 main 483 453 __________P___ -1 17.7407 115.517 2 14 268
1908214N18120 1908 26 WP MM NOT_NAMED 1908-08-02 03:00:00 NR 17.7101 114.812 main 453 434 __________P___ -1 17.7101 114.812 2 13 267
1908214N18120 1908 26 WP MM NOT_NAMED 1908-08-02 04:00:00 NR 17.7000 114.600 main 434 398 __________O___ -1 17.7000 114.600 2 11 267
1908214N18120 1908 26 WP MM NOT_NAMED 1908-08-02 06:00:00 NR 17.6850 114.249 main 398 363 __________P___ -1 17.6850 114.249 2 9 267
1908214N18120 1908 26 WP MM NOT_NAMED 1908-08-02 09:00:00 NR 17.6634 113.791 main 363 334 __________P___ -1 17.6634 113.791 2 8 267
1908214N18120 1908 26 WP MM NOT_NAMED 1908-08-02 12:00:00 NR 17.6401 113.391 main 334 296 __________P___ -1 17.6401 113.391 2 7 266
1908214N18120 1908 26 WP MM NOT_NAMED 1908-08-02 15:00:00 NR 17.6114 113.022 main 296 286 __________P___ -1 17.6114 113.022 2 7 265
1908214N18120 1908 26 WP MM NOT_NAMED 1908-08-02 16:00:00 NR 17.6000 112.900 main 286 259 __________O___ -1 17.6000 112.900 2 8 264
1908214N18120 1908 26 WP MM NOT_NAMED 1908-08-02 18:00:00 NR 17.5697 112.625 main 259 231 __________P___ -1 17.5697 112.625 2 8 263
1908214N18120 1908 26 WP MM NOT_NAMED 1908-08-02 21:00:00 NR 17.5179 112.226 main 231 199 __________P___ -1 17.5179 112.226 2 7 262
1908214N18120 1908 26 WP MM NOT_NAMED 1908-08-03 00:00:00 NR 17.4641 111.850 main 199 186 __________P___ -1 17.4641 111.850 2 7 261
1908214N18120 1908 26 WP MM NOT_NAMED 1908-08-03 03:00:00 NR 17.4145 111.506 main 186 179 __________P___ -1 17.4145 111.506 2 7 262
1908214N18120 1908 26 WP MM NOT_NAMED 1908-08-03 04:00:00 NR 17.4000 111.400 main 179 168 __________O___ -1 17.4000 111.400 2 6 263
1908214N18120 1908 26 WP MM NOT_NAMED 1908-08-03 06:00:00 NR 17.3800 111.205 main 168 146 __________P___ -1 17.3800 111.205 2 5 264
1908214N18120 1908 26 WP MM NOT_NAMED 1908-08-03 09:00:00 NR 17.3565 110.944 main 146 143 __________P___ -1 17.3565 110.944 2 5 265
1908214N18120 1908 26 WP MM NOT_NAMED 1908-08-03 12:00:00 NR 17.3354 110.706 main 143 131 __________P___ -1 17.3354 110.706 2 4 264
1908214N18120 1908 26 WP MM NOT_NAMED 1908-08-03 15:00:00 NR 17.3104 110.477 main 131 125 __________P___ -1 17.3104 110.477 2 4 263
1908214N18120 1908 26 WP MM NOT_NAMED 1908-08-03 16:00:00 NR 17.3000 110.400 main 125 113 __________O___ -1 17.3000 110.400 2 5 261
1908214N18120 1908 26 WP MM NOT_NAMED 1908-08-03 18:00:00 NR 17.2753 110.242 main 113 109 __________P___ -1 17.2753 110.242 2 5 260
1908214N18120 1908 26 WP MM NOT_NAMED 1908-08-03 21:00:00 NR 17.2299 109.996 main 116 111 __________P___ -1 17.2299 109.996 2 5 258
1908214N18120 1908 26 WP MM NOT_NAMED 1908-08-04 00:00:00 NR 17.1769 109.743 main 111 111 __________P___ -1 17.1769 109.743 2 5 257
1908214N18120 1908 26 WP MM NOT_NAMED 1908-08-04 03:00:00 NR 17.1196 109.486 main 123 123 __________P___ -1 17.1196 109.486 2 5 257
1908214N18120 1908 26 WP MM NOT_NAMED 1908-08-04 04:00:00 NR 17.1000 109.400 main 123 __________O___ -1 17.1000 109.400 7 5 256

デジタル台風データ・検索

IBTrACS Databaseについて

本データベースは、米国NOAAが公開する1842年以降の世界の熱帯低気圧のベストトラックデータアーカイブInternational Best Track Archive for Climate Stewardship (IBTrACS)を、ウェブで閲覧しやすい形式に変換したものです。

最終更新日:2021-10-25